sensor_id;sensor_type;location;lat;lon;timestamp;P1;durP1;ratioP1;P2;durP2;ratioP2
54909;SDS011;63189;51.240;9.964;2023-12-20T00:01:16;0.93;;;0.70;;
54909;SDS011;63189;51.240;9.964;2023-12-20T00:03:41;1.67;;;0.90;;
54909;SDS011;63189;51.240;9.964;2023-12-20T00:06:07;1.05;;;0.77;;
54909;SDS011;63189;51.240;9.964;2023-12-20T00:08:32;1.27;;;1.00;;
54909;SDS011;63189;51.240;9.964;2023-12-20T00:10:58;1.55;;;1.05;;
54909;SDS011;63189;51.240;9.964;2023-12-20T00:13:23;2.03;;;1.00;;
54909;SDS011;63189;51.240;9.964;2023-12-20T00:15:48;1.27;;;1.00;;
54909;SDS011;63189;51.240;9.964;2023-12-20T00:18:14;1.35;;;1.00;;
54909;SDS011;63189;51.240;9.964;2023-12-20T00:20:39;1.52;;;1.10;;
54909;SDS011;63189;51.240;9.964;2023-12-20T00:23:04;1.45;;;1.08;;
54909;SDS011;63189;51.240;9.964;2023-12-20T00:25:30;1.52;;;1.10;;
54909;SDS011;63189;51.240;9.964;2023-12-20T00:27:55;1.85;;;1.27;;
54909;SDS011;63189;51.240;9.964;2023-12-20T00:30:20;1.52;;;1.20;;
54909;SDS011;63189;51.240;9.964;2023-12-20T00:32:46;1.60;;;1.27;;
54909;SDS011;63189;51.240;9.964;2023-12-20T00:35:15;1.42;;;1.13;;
54909;SDS011;63189;51.240;9.964;2023-12-20T00:37:41;1.13;;;1.00;;
54909;SDS011;63189;51.240;9.964;2023-12-20T00:40:08;1.00;;;0.80;;
54909;SDS011;63189;51.240;9.964;2023-12-20T00:42:33;1.20;;;0.80;;
54909;SDS011;63189;51.240;9.964;2023-12-20T00:44:59;1.60;;;1.23;;
54909;SDS011;63189;51.240;9.964;2023-12-20T00:47:25;1.40;;;1.10;;
54909;SDS011;63189;51.240;9.964;2023-12-20T00:49:50;1.95;;;1.33;;
54909;SDS011;63189;51.240;9.964;2023-12-20T00:52:16;1.90;;;1.25;;
54909;SDS011;63189;51.240;9.964;2023-12-20T00:54:44;2.53;;;1.80;;
54909;SDS011;63189;51.240;9.964;2023-12-20T00:57:10;2.00;;;1.50;;
54909;SDS011;63189;51.240;9.964;2023-12-20T00:59:35;1.52;;;1.40;;
54909;SDS011;63189;51.240;9.964;2023-12-20T01:02:01;2.03;;;1.50;;
54909;SDS011;63189;51.240;9.964;2023-12-20T01:04:27;1.90;;;1.50;;
54909;SDS011;63189;51.240;9.964;2023-12-20T01:06:52;2.60;;;1.70;;
54909;SDS011;63189;51.240;9.964;2023-12-20T01:09:18;2.03;;;1.63;;
54909;SDS011;63189;51.240;9.964;2023-12-20T01:11:43;2.92;;;1.40;;
54909;SDS011;63189;51.240;9.964;2023-12-20T01:14:09;2.45;;;1.63;;
54909;SDS011;63189;51.240;9.964;2023-12-20T01:16:34;2.33;;;1.70;;
54909;SDS011;63189;51.240;9.964;2023-12-20T01:19:00;1.98;;;1.60;;
54909;SDS011;63189;51.240;9.964;2023-12-20T01:21:25;2.17;;;1.60;;
54909;SDS011;63189;51.240;9.964;2023-12-20T01:23:50;2.00;;;1.60;;
54909;SDS011;63189;51.240;9.964;2023-12-20T01:26:16;2.00;;;1.50;;
54909;SDS011;63189;51.240;9.964;2023-12-20T01:28:41;2.00;;;1.50;;
54909;SDS011;63189;51.240;9.964;2023-12-20T01:31:07;2.05;;;1.80;;
54909;SDS011;63189;51.240;9.964;2023-12-20T01:33:33;2.55;;;1.95;;
54909;SDS011;63189;51.240;9.964;2023-12-20T01:35:58;2.70;;;1.85;;
54909;SDS011;63189;51.240;9.964;2023-12-20T01:38:24;2.70;;;1.83;;
54909;SDS011;63189;51.240;9.964;2023-12-20T01:40:49;2.13;;;1.73;;
54909;SDS011;63189;51.240;9.964;2023-12-20T01:43:14;2.60;;;2.00;;
54909;SDS011;63189;51.240;9.964;2023-12-20T01:45:40;2.60;;;2.00;;
54909;SDS011;63189;51.240;9.964;2023-12-20T01:48:05;4.88;;;2.50;;
54909;SDS011;63189;51.240;9.964;2023-12-20T01:50:33;2.40;;;1.90;;
54909;SDS011;63189;51.240;9.964;2023-12-20T01:53:01;3.35;;;2.08;;
54909;SDS011;63189;51.240;9.964;2023-12-20T01:55:29;2.30;;;1.65;;
54909;SDS011;63189;51.240;9.964;2023-12-20T01:57:57;2.30;;;1.83;;
54909;SDS011;63189;51.240;9.964;2023-12-20T02:00:24;2.70;;;1.95;;
54909;SDS011;63189;51.240;9.964;2023-12-20T02:02:52;2.33;;;1.80;;
54909;SDS011;63189;51.240;9.964;2023-12-20T02:05:20;2.83;;;1.77;;
54909;SDS011;63189;51.240;9.964;2023-12-20T02:07:46;4.15;;;1.90;;
54909;SDS011;63189;51.240;9.964;2023-12-20T02:10:11;2.30;;;1.80;;
54909;SDS011;63189;51.240;9.964;2023-12-20T02:12:37;2.53;;;1.73;;
54909;SDS011;63189;51.240;9.964;2023-12-20T02:15:03;2.90;;;1.70;;
54909;SDS011;63189;51.240;9.964;2023-12-20T02:17:29;2.28;;;1.80;;
54909;SDS011;63189;51.240;9.964;2023-12-20T02:19:56;2.10;;;1.73;;
54909;SDS011;63189;51.240;9.964;2023-12-20T02:22:21;2.05;;;1.70;;
54909;SDS011;63189;51.240;9.964;2023-12-20T02:24:47;2.05;;;1.77;;
54909;SDS011;63189;51.240;9.964;2023-12-20T02:27:12;2.30;;;1.80;;
54909;SDS011;63189;51.240;9.964;2023-12-20T02:29:37;2.88;;;1.88;;
54909;SDS011;63189;51.240;9.964;2023-12-20T02:32:03;2.53;;;2.00;;
54909;SDS011;63189;51.240;9.964;2023-12-20T02:34:29;2.53;;;1.90;;
54909;SDS011;63189;51.240;9.964;2023-12-20T02:36:54;1.60;;;1.50;;
54909;SDS011;63189;51.240;9.964;2023-12-20T02:39:20;1.85;;;1.55;;
54909;SDS011;63189;51.240;9.964;2023-12-20T02:41:46;4.43;;;2.05;;
54909;SDS011;63189;51.240;9.964;2023-12-20T02:44:12;2.55;;;2.08;;
54909;SDS011;63189;51.240;9.964;2023-12-20T02:46:37;2.72;;;1.88;;
54909;SDS011;63189;51.240;9.964;2023-12-20T02:49:03;2.25;;;1.70;;
54909;SDS011;63189;51.240;9.964;2023-12-20T02:51:28;1.63;;;1.40;;
54909;SDS011;63189;51.240;9.964;2023-12-20T02:53:53;3.08;;;2.15;;
54909;SDS011;63189;51.240;9.964;2023-12-20T02:56:19;2.42;;;1.83;;
54909;SDS011;63189;51.240;9.964;2023-12-20T02:58:44;3.28;;;1.80;;
54909;SDS011;63189;51.240;9.964;2023-12-20T03:01:09;2.58;;;2.00;;
54909;SDS011;63189;51.240;9.964;2023-12-20T03:03:35;2.58;;;1.70;;
54909;SDS011;63189;51.240;9.964;2023-12-20T03:06:00;2.35;;;1.85;;
54909;SDS011;63189;51.240;9.964;2023-12-20T03:08:25;2.05;;;1.77;;
54909;SDS011;63189;51.240;9.964;2023-12-20T03:10:51;2.85;;;1.80;;
54909;SDS011;63189;51.240;9.964;2023-12-20T03:13:16;2.80;;;1.52;;
54909;SDS011;63189;51.240;9.964;2023-12-20T03:15:42;1.88;;;1.30;;
54909;SDS011;63189;51.240;9.964;2023-12-20T03:18:07;3.25;;;1.20;;
54909;SDS011;63189;51.240;9.964;2023-12-20T03:20:32;1.83;;;1.15;;
54909;SDS011;63189;51.240;9.964;2023-12-20T03:22:59;4.80;;;1.50;;
54909;SDS011;63189;51.240;9.964;2023-12-20T03:25:25;3.33;;;1.38;;
54909;SDS011;63189;51.240;9.964;2023-12-20T03:27:51;4.55;;;1.30;;
54909;SDS011;63189;51.240;9.964;2023-12-20T03:30:17;3.13;;;1.40;;
54909;SDS011;63189;51.240;9.964;2023-12-20T03:32:42;2.97;;;1.40;;
54909;SDS011;63189;51.240;9.964;2023-12-20T03:35:08;2.30;;;1.20;;
54909;SDS011;63189;51.240;9.964;2023-12-20T03:37:33;2.72;;;1.50;;
54909;SDS011;63189;51.240;9.964;2023-12-20T03:39:59;3.83;;;1.50;;
54909;SDS011;63189;51.240;9.964;2023-12-20T03:42:25;7.60;;;2.10;;
54909;SDS011;63189;51.240;9.964;2023-12-20T03:44:50;6.68;;;2.10;;
54909;SDS011;63189;51.240;9.964;2023-12-20T03:47:15;3.85;;;1.80;;
54909;SDS011;63189;51.240;9.964;2023-12-20T03:49:41;16.13;;;6.53;;
54909;SDS011;63189;51.240;9.964;2023-12-20T03:52:06;6.82;;;2.60;;
54909;SDS011;63189;51.240;9.964;2023-12-20T03:54:32;3.83;;;1.70;;
54909;SDS011;63189;51.240;9.964;2023-12-20T03:56:58;4.53;;;1.98;;
54909;SDS011;63189;51.240;9.964;2023-12-20T03:59:23;4.47;;;1.67;;
54909;SDS011;63189;51.240;9.964;2023-12-20T04:01:48;3.47;;;1.52;;
54909;SDS011;63189;51.240;9.964;2023-12-20T04:04:14;3.67;;;1.67;;
54909;SDS011;63189;51.240;9.964;2023-12-20T04:06:39;4.60;;;1.67;;
54909;SDS011;63189;51.240;9.964;2023-12-20T04:09:05;3.78;;;1.63;;
54909;SDS011;63189;51.240;9.964;2023-12-20T04:11:30;5.05;;;1.60;;
54909;SDS011;63189;51.240;9.964;2023-12-20T04:13:55;7.65;;;1.90;;
54909;SDS011;63189;51.240;9.964;2023-12-20T04:16:21;7.82;;;1.98;;
54909;SDS011;63189;51.240;9.964;2023-12-20T04:18:46;6.15;;;1.55;;
54909;SDS011;63189;51.240;9.964;2023-12-20T04:21:11;7.18;;;1.95;;
54909;SDS011;63189;51.240;9.964;2023-12-20T04:23:37;3.35;;;1.75;;
54909;SDS011;63189;51.240;9.964;2023-12-20T04:26:05;6.70;;;2.42;;
54909;SDS011;63189;51.240;9.964;2023-12-20T04:28:31;4.63;;;2.10;;
54909;SDS011;63189;51.240;9.964;2023-12-20T04:31:12;6.20;;;2.15;;
54909;SDS011;63189;51.240;9.964;2023-12-20T04:33:38;6.43;;;2.17;;
54909;SDS011;63189;51.240;9.964;2023-12-20T04:36:04;7.30;;;2.75;;
54909;SDS011;63189;51.240;9.964;2023-12-20T04:38:31;5.88;;;3.03;;
54909;SDS011;63189;51.240;9.964;2023-12-20T04:40:57;9.80;;;3.45;;
54909;SDS011;63189;51.240;9.964;2023-12-20T04:43:22;7.60;;;3.17;;
54909;SDS011;63189;51.240;9.964;2023-12-20T04:45:47;9.13;;;3.47;;
54909;SDS011;63189;51.240;9.964;2023-12-20T04:48:13;7.63;;;3.40;;
54909;SDS011;63189;51.240;9.964;2023-12-20T04:50:38;10.75;;;3.28;;
54909;SDS011;63189;51.240;9.964;2023-12-20T04:53:04;11.13;;;3.55;;
54909;SDS011;63189;51.240;9.964;2023-12-20T04:55:29;6.88;;;2.92;;
54909;SDS011;63189;51.240;9.964;2023-12-20T04:57:54;6.95;;;3.20;;
54909;SDS011;63189;51.240;9.964;2023-12-20T05:00:23;8.45;;;3.33;;
54909;SDS011;63189;51.240;9.964;2023-12-20T05:02:48;6.53;;;2.83;;
54909;SDS011;63189;51.240;9.964;2023-12-20T05:05:13;5.63;;;2.70;;
54909;SDS011;63189;51.240;9.964;2023-12-20T05:07:43;6.75;;;3.00;;
54909;SDS011;63189;51.240;9.964;2023-12-20T05:10:08;11.80;;;3.55;;
54909;SDS011;63189;51.240;9.964;2023-12-20T05:12:34;4.63;;;2.83;;
54909;SDS011;63189;51.240;9.964;2023-12-20T05:14:59;5.40;;;2.55;;
54909;SDS011;63189;51.240;9.964;2023-12-20T05:17:25;4.47;;;2.30;;
54909;SDS011;63189;51.240;9.964;2023-12-20T05:19:50;6.50;;;2.65;;
54909;SDS011;63189;51.240;9.964;2023-12-20T05:22:16;6.43;;;2.80;;
54909;SDS011;63189;51.240;9.964;2023-12-20T05:24:42;6.57;;;2.70;;
54909;SDS011;63189;51.240;9.964;2023-12-20T05:27:10;6.45;;;2.42;;
54909;SDS011;63189;51.240;9.964;2023-12-20T05:29:36;6.95;;;2.30;;
54909;SDS011;63189;51.240;9.964;2023-12-20T05:32:01;7.50;;;2.70;;
54909;SDS011;63189;51.240;9.964;2023-12-20T05:34:29;7.13;;;2.15;;
54909;SDS011;63189;51.240;9.964;2023-12-20T05:36:55;10.38;;;2.58;;
54909;SDS011;63189;51.240;9.964;2023-12-20T05:39:20;6.07;;;1.92;;
54909;SDS011;63189;51.240;9.964;2023-12-20T05:41:46;7.55;;;2.33;;
54909;SDS011;63189;51.240;9.964;2023-12-20T05:44:12;7.18;;;2.05;;
54909;SDS011;63189;51.240;9.964;2023-12-20T05:46:37;7.47;;;2.47;;
54909;SDS011;63189;51.240;9.964;2023-12-20T05:49:06;9.48;;;2.20;;
54909;SDS011;63189;51.240;9.964;2023-12-20T05:51:31;6.80;;;2.17;;
54909;SDS011;63189;51.240;9.964;2023-12-20T05:53:57;5.40;;;2.50;;
54909;SDS011;63189;51.240;9.964;2023-12-20T05:56:23;7.05;;;2.70;;
54909;SDS011;63189;51.240;9.964;2023-12-20T05:58:56;9.85;;;2.72;;
54909;SDS011;63189;51.240;9.964;2023-12-20T06:01:24;7.88;;;2.08;;
54909;SDS011;63189;51.240;9.964;2023-12-20T06:03:49;6.75;;;2.10;;
54909;SDS011;63189;51.240;9.964;2023-12-20T06:06:14;5.13;;;1.85;;
54909;SDS011;63189;51.240;9.964;2023-12-20T06:08:40;6.97;;;1.80;;
54909;SDS011;63189;51.240;9.964;2023-12-20T06:11:06;5.20;;;1.83;;
54909;SDS011;63189;51.240;9.964;2023-12-20T06:13:31;7.90;;;2.00;;
54909;SDS011;63189;51.240;9.964;2023-12-20T06:15:56;8.95;;;1.73;;
54909;SDS011;63189;51.240;9.964;2023-12-20T06:18:22;6.57;;;1.80;;
54909;SDS011;63189;51.240;9.964;2023-12-20T06:20:48;8.40;;;2.17;;
54909;SDS011;63189;51.240;9.964;2023-12-20T06:23:13;6.32;;;1.98;;
54909;SDS011;63189;51.240;9.964;2023-12-20T06:25:38;7.88;;;1.90;;
54909;SDS011;63189;51.240;9.964;2023-12-20T06:28:22;5.32;;;2.00;;
54909;SDS011;63189;51.240;9.964;2023-12-20T06:30:53;7.88;;;2.03;;
54909;SDS011;63189;51.240;9.964;2023-12-20T06:33:20;6.28;;;2.00;;
54909;SDS011;63189;51.240;9.964;2023-12-20T06:35:47;5.00;;;2.00;;
54909;SDS011;63189;51.240;9.964;2023-12-20T06:38:12;7.43;;;2.03;;
54909;SDS011;63189;51.240;9.964;2023-12-20T06:40:37;4.28;;;2.10;;
54909;SDS011;63189;51.240;9.964;2023-12-20T06:43:03;5.32;;;2.00;;
54909;SDS011;63189;51.240;9.964;2023-12-20T06:45:28;7.88;;;2.10;;
54909;SDS011;63189;51.240;9.964;2023-12-20T06:47:54;10.43;;;2.05;;
54909;SDS011;63189;51.240;9.964;2023-12-20T06:50:19;9.57;;;2.28;;
54909;SDS011;63189;51.240;9.964;2023-12-20T06:52:45;9.75;;;2.60;;
54909;SDS011;63189;51.240;9.964;2023-12-20T06:55:11;6.45;;;2.25;;
54909;SDS011;63189;51.240;9.964;2023-12-20T06:57:36;7.65;;;2.08;;
54909;SDS011;63189;51.240;9.964;2023-12-20T07:00:02;6.85;;;2.20;;
54909;SDS011;63189;51.240;9.964;2023-12-20T07:02:28;8.73;;;2.40;;
54909;SDS011;63189;51.240;9.964;2023-12-20T07:04:55;7.28;;;2.63;;
54909;SDS011;63189;51.240;9.964;2023-12-20T07:07:22;7.03;;;2.38;;
54909;SDS011;63189;51.240;9.964;2023-12-20T07:09:51;5.70;;;2.30;;
54909;SDS011;63189;51.240;9.964;2023-12-20T07:12:16;6.47;;;2.67;;
54909;SDS011;63189;51.240;9.964;2023-12-20T07:14:44;6.85;;;2.67;;
54909;SDS011;63189;51.240;9.964;2023-12-20T07:17:09;10.10;;;2.47;;
54909;SDS011;63189;51.240;9.964;2023-12-20T07:19:37;7.93;;;2.40;;
54909;SDS011;63189;51.240;9.964;2023-12-20T07:22:03;10.25;;;2.90;;
54909;SDS011;63189;51.240;9.964;2023-12-20T07:24:29;8.63;;;2.70;;
54909;SDS011;63189;51.240;9.964;2023-12-20T07:26:54;7.22;;;2.67;;
54909;SDS011;63189;51.240;9.964;2023-12-20T07:29:20;6.38;;;2.55;;
54909;SDS011;63189;51.240;9.964;2023-12-20T07:31:45;8.65;;;2.83;;
54909;SDS011;63189;51.240;9.964;2023-12-20T07:34:11;6.47;;;2.53;;
54909;SDS011;63189;51.240;9.964;2023-12-20T07:36:36;9.95;;;3.17;;
54909;SDS011;63189;51.240;9.964;2023-12-20T07:39:01;11.57;;;3.28;;
54909;SDS011;63189;51.240;9.964;2023-12-20T07:41:28;7.70;;;2.72;;
54909;SDS011;63189;51.240;9.964;2023-12-20T07:43:53;6.00;;;2.90;;
54909;SDS011;63189;51.240;9.964;2023-12-20T07:46:20;6.30;;;2.60;;
54909;SDS011;63189;51.240;9.964;2023-12-20T07:48:47;6.20;;;2.50;;
54909;SDS011;63189;51.240;9.964;2023-12-20T07:51:13;8.73;;;2.80;;
54909;SDS011;63189;51.240;9.964;2023-12-20T07:53:38;10.43;;;2.88;;
54909;SDS011;63189;51.240;9.964;2023-12-20T07:56:13;8.10;;;2.80;;
54909;SDS011;63189;51.240;9.964;2023-12-20T07:58:43;6.30;;;2.40;;
54909;SDS011;63189;51.240;9.964;2023-12-20T08:01:09;9.93;;;3.00;;
54909;SDS011;63189;51.240;9.964;2023-12-20T08:03:35;7.78;;;2.85;;
54909;SDS011;63189;51.240;9.964;2023-12-20T08:06:00;12.10;;;2.75;;
54909;SDS011;63189;51.240;9.964;2023-12-20T08:08:26;9.43;;;2.85;;
54909;SDS011;63189;51.240;9.964;2023-12-20T08:10:51;7.70;;;2.50;;
54909;SDS011;63189;51.240;9.964;2023-12-20T08:13:16;9.68;;;2.45;;
54909;SDS011;63189;51.240;9.964;2023-12-20T08:15:42;8.27;;;2.53;;
54909;SDS011;63189;51.240;9.964;2023-12-20T08:18:07;10.13;;;2.88;;
54909;SDS011;63189;51.240;9.964;2023-12-20T08:20:33;5.25;;;2.40;;
54909;SDS011;63189;51.240;9.964;2023-12-20T08:22:59;11.98;;;3.03;;
54909;SDS011;63189;51.240;9.964;2023-12-20T08:25:24;8.90;;;2.60;;
54909;SDS011;63189;51.240;9.964;2023-12-20T08:27:49;6.63;;;2.55;;
54909;SDS011;63189;51.240;9.964;2023-12-20T08:30:15;6.95;;;2.75;;
54909;SDS011;63189;51.240;9.964;2023-12-20T08:32:42;7.72;;;2.55;;
54909;SDS011;63189;51.240;9.964;2023-12-20T08:35:08;6.63;;;2.40;;
54909;SDS011;63189;51.240;9.964;2023-12-20T08:37:33;10.25;;;2.90;;
54909;SDS011;63189;51.240;9.964;2023-12-20T08:39:59;9.75;;;3.00;;
54909;SDS011;63189;51.240;9.964;2023-12-20T08:42:24;5.78;;;2.15;;
54909;SDS011;63189;51.240;9.964;2023-12-20T08:44:55;8.45;;;2.60;;
54909;SDS011;63189;51.240;9.964;2023-12-20T08:47:21;8.77;;;2.25;;
54909;SDS011;63189;51.240;9.964;2023-12-20T08:49:46;8.23;;;2.25;;
54909;SDS011;63189;51.240;9.964;2023-12-20T08:52:11;9.65;;;3.20;;
54909;SDS011;63189;51.240;9.964;2023-12-20T08:54:37;7.30;;;2.25;;
54909;SDS011;63189;51.240;9.964;2023-12-20T08:57:02;10.07;;;2.55;;
54909;SDS011;63189;51.240;9.964;2023-12-20T08:59:28;9.25;;;2.30;;
54909;SDS011;63189;51.240;9.964;2023-12-20T09:01:53;6.47;;;2.15;;
54909;SDS011;63189;51.240;9.964;2023-12-20T09:04:20;6.93;;;2.65;;
54909;SDS011;63189;51.240;9.964;2023-12-20T09:06:45;7.72;;;2.30;;
54909;SDS011;63189;51.240;9.964;2023-12-20T09:09:11;8.85;;;2.75;;
54909;SDS011;63189;51.240;9.964;2023-12-20T09:11:38;5.82;;;2.45;;
54909;SDS011;63189;51.240;9.964;2023-12-20T09:14:06;5.80;;;2.42;;
54909;SDS011;63189;51.240;9.964;2023-12-20T09:16:32;9.35;;;2.17;;
54909;SDS011;63189;51.240;9.964;2023-12-20T09:19:00;8.95;;;2.47;;
54909;SDS011;63189;51.240;9.964;2023-12-20T09:21:25;11.10;;;2.85;;
54909;SDS011;63189;51.240;9.964;2023-12-20T09:23:51;4.50;;;2.03;;
54909;SDS011;63189;51.240;9.964;2023-12-20T09:26:17;17.05;;;2.80;;
54909;SDS011;63189;51.240;9.964;2023-12-20T09:28:43;10.18;;;2.38;;
54909;SDS011;63189;51.240;9.964;2023-12-20T09:31:08;9.13;;;2.40;;
54909;SDS011;63189;51.240;9.964;2023-12-20T09:33:34;9.25;;;2.72;;
54909;SDS011;63189;51.240;9.964;2023-12-20T09:35:59;6.43;;;2.08;;
54909;SDS011;63189;51.240;9.964;2023-12-20T09:38:33;8.48;;;2.28;;
54909;SDS011;63189;51.240;9.964;2023-12-20T09:40:58;6.82;;;1.92;;
54909;SDS011;63189;51.240;9.964;2023-12-20T09:43:31;10.55;;;2.45;;
54909;SDS011;63189;51.240;9.964;2023-12-20T09:46:00;10.30;;;2.65;;
54909;SDS011;63189;51.240;9.964;2023-12-20T09:48:30;9.15;;;2.67;;
54909;SDS011;63189;51.240;9.964;2023-12-20T09:51:01;9.27;;;2.78;;
54909;SDS011;63189;51.240;9.964;2023-12-20T09:53:26;12.18;;;2.78;;
54909;SDS011;63189;51.240;9.964;2023-12-20T09:55:56;8.48;;;2.70;;
54909;SDS011;63189;51.240;9.964;2023-12-20T09:58:25;8.43;;;2.20;;
54909;SDS011;63189;51.240;9.964;2023-12-20T10:00:51;6.32;;;2.17;;
54909;SDS011;63189;51.240;9.964;2023-12-20T10:03:18;6.13;;;2.38;;
54909;SDS011;63189;51.240;9.964;2023-12-20T10:05:47;6.03;;;3.00;;
54909;SDS011;63189;51.240;9.964;2023-12-20T10:08:17;11.25;;;3.00;;
54909;SDS011;63189;51.240;9.964;2023-12-20T10:10:42;9.65;;;3.00;;
54909;SDS011;63189;51.240;9.964;2023-12-20T10:13:11;10.07;;;3.22;;
54909;SDS011;63189;51.240;9.964;2023-12-20T10:15:37;8.10;;;3.00;;
54909;SDS011;63189;51.240;9.964;2023-12-20T10:18:04;10.90;;;3.28;;
54909;SDS011;63189;51.240;9.964;2023-12-20T10:20:30;16.48;;;5.05;;
54909;SDS011;63189;51.240;9.964;2023-12-20T10:22:56;8.98;;;2.95;;
54909;SDS011;63189;51.240;9.964;2023-12-20T10:25:22;7.32;;;2.60;;
54909;SDS011;63189;51.240;9.964;2023-12-20T10:27:49;6.28;;;2.30;;
54909;SDS011;63189;51.240;9.964;2023-12-20T10:30:15;8.80;;;3.08;;
54909;SDS011;63189;51.240;9.964;2023-12-20T10:32:40;8.20;;;3.10;;
54909;SDS011;63189;51.240;9.964;2023-12-20T10:35:06;5.55;;;1.90;;
54909;SDS011;63189;51.240;9.964;2023-12-20T10:37:39;9.57;;;2.38;;
54909;SDS011;63189;51.240;9.964;2023-12-20T10:40:05;7.15;;;2.40;;
54909;SDS011;63189;51.240;9.964;2023-12-20T10:42:31;9.40;;;2.72;;
54909;SDS011;63189;51.240;9.964;2023-12-20T10:44:59;6.82;;;2.97;;
54909;SDS011;63189;51.240;9.964;2023-12-20T10:47:25;9.40;;;2.70;;
54909;SDS011;63189;51.240;9.964;2023-12-20T10:49:54;5.75;;;2.47;;
54909;SDS011;63189;51.240;9.964;2023-12-20T10:52:20;9.73;;;2.88;;
54909;SDS011;63189;51.240;9.964;2023-12-20T10:54:48;7.78;;;2.63;;
54909;SDS011;63189;51.240;9.964;2023-12-20T10:57:13;9.50;;;2.83;;
54909;SDS011;63189;51.240;9.964;2023-12-20T10:59:42;6.72;;;2.92;;
54909;SDS011;63189;51.240;9.964;2023-12-20T11:02:10;8.25;;;2.92;;
54909;SDS011;63189;51.240;9.964;2023-12-20T11:04:39;7.45;;;2.55;;
54909;SDS011;63189;51.240;9.964;2023-12-20T11:07:15;9.77;;;2.85;;
54909;SDS011;63189;51.240;9.964;2023-12-20T11:09:54;4.85;;;2.30;;
54909;SDS011;63189;51.240;9.964;2023-12-20T11:14:59;8.10;;;1.95;;
54909;SDS011;63189;51.240;9.964;2023-12-20T11:17:29;6.80;;;2.55;;
54909;SDS011;63189;51.240;9.964;2023-12-20T11:22:22;9.05;;;2.10;;
54909;SDS011;63189;51.240;9.964;2023-12-20T11:24:49;8.70;;;2.33;;
54909;SDS011;63189;51.240;9.964;2023-12-20T11:27:15;5.65;;;2.05;;
54909;SDS011;63189;51.240;9.964;2023-12-20T11:29:41;9.30;;;2.20;;
54909;SDS011;63189;51.240;9.964;2023-12-20T11:34:50;7.75;;;2.50;;
54909;SDS011;63189;51.240;9.964;2023-12-20T11:37:30;5.60;;;2.00;;
54909;SDS011;63189;51.240;9.964;2023-12-20T11:40:08;7.60;;;2.58;;
54909;SDS011;63189;51.240;9.964;2023-12-20T11:42:41;7.53;;;2.35;;
54909;SDS011;63189;51.240;9.964;2023-12-20T11:45:08;7.93;;;2.10;;
54909;SDS011;63189;51.240;9.964;2023-12-20T11:47:35;5.10;;;2.28;;
54909;SDS011;63189;51.240;9.964;2023-12-20T11:50:01;5.50;;;2.60;;
54909;SDS011;63189;51.240;9.964;2023-12-20T11:52:29;4.13;;;1.85;;
54909;SDS011;63189;51.240;9.964;2023-12-20T11:54:54;3.13;;;1.48;;
54909;SDS011;63189;51.240;9.964;2023-12-20T11:57:20;5.40;;;2.05;;
54909;SDS011;63189;51.240;9.964;2023-12-20T11:59:45;7.07;;;2.03;;
54909;SDS011;63189;51.240;9.964;2023-12-20T12:02:11;5.78;;;2.25;;
54909;SDS011;63189;51.240;9.964;2023-12-20T12:04:37;6.07;;;2.10;;
54909;SDS011;63189;51.240;9.964;2023-12-20T12:07:06;8.23;;;2.22;;
54909;SDS011;63189;51.240;9.964;2023-12-20T12:09:31;6.13;;;1.92;;
54909;SDS011;63189;51.240;9.964;2023-12-20T12:11:57;9.05;;;2.15;;
54909;SDS011;63189;51.240;9.964;2023-12-20T12:14:22;7.80;;;1.90;;
54909;SDS011;63189;51.240;9.964;2023-12-20T12:16:47;6.10;;;2.10;;
54909;SDS011;63189;51.240;9.964;2023-12-20T12:19:21;6.05;;;1.90;;
54909;SDS011;63189;51.240;9.964;2023-12-20T12:21:50;4.20;;;2.13;;
54909;SDS011;63189;51.240;9.964;2023-12-20T12:24:19;5.75;;;2.03;;
54909;SDS011;63189;51.240;9.964;2023-12-20T12:26:49;4.85;;;2.33;;
54909;SDS011;63189;51.240;9.964;2023-12-20T12:29:15;9.32;;;2.10;;
54909;SDS011;63189;51.240;9.964;2023-12-20T12:31:40;6.45;;;2.65;;
54909;SDS011;63189;51.240;9.964;2023-12-20T12:34:06;6.07;;;1.95;;
54909;SDS011;63189;51.240;9.964;2023-12-20T12:36:34;4.97;;;2.10;;
54909;SDS011;63189;51.240;9.964;2023-12-20T12:39:02;6.93;;;2.45;;
54909;SDS011;63189;51.240;9.964;2023-12-20T12:41:29;6.65;;;2.35;;
54909;SDS011;63189;51.240;9.964;2023-12-20T12:43:54;7.00;;;2.58;;
54909;SDS011;63189;51.240;9.964;2023-12-20T12:46:19;6.25;;;2.38;;
54909;SDS011;63189;51.240;9.964;2023-12-20T12:48:45;8.23;;;2.83;;
54909;SDS011;63189;51.240;9.964;2023-12-20T12:51:11;5.03;;;2.30;;
54909;SDS011;63189;51.240;9.964;2023-12-20T12:53:38;3.47;;;1.92;;
54909;SDS011;63189;51.240;9.964;2023-12-20T12:56:04;6.43;;;2.00;;
54909;SDS011;63189;51.240;9.964;2023-12-20T12:58:29;6.47;;;2.13;;
54909;SDS011;63189;51.240;9.964;2023-12-20T13:00:55;2.95;;;1.50;;
54909;SDS011;63189;51.240;9.964;2023-12-20T13:03:20;4.32;;;2.20;;
54909;SDS011;63189;51.240;9.964;2023-12-20T13:05:46;5.07;;;1.80;;
54909;SDS011;63189;51.240;9.964;2023-12-20T13:08:13;5.63;;;2.40;;
54909;SDS011;63189;51.240;9.964;2023-12-20T13:10:39;3.30;;;1.50;;
54909;SDS011;63189;51.240;9.964;2023-12-20T13:13:04;3.67;;;2.05;;
54909;SDS011;63189;51.240;9.964;2023-12-20T13:15:29;5.10;;;1.58;;
54909;SDS011;63189;51.240;9.964;2023-12-20T13:17:55;3.42;;;1.30;;
54909;SDS011;63189;51.240;9.964;2023-12-20T13:20:21;4.72;;;1.50;;
54909;SDS011;63189;51.240;9.964;2023-12-20T13:22:47;2.10;;;1.33;;
54909;SDS011;63189;51.240;9.964;2023-12-20T13:25:13;1.70;;;1.17;;
54909;SDS011;63189;51.240;9.964;2023-12-20T13:27:38;4.38;;;1.55;;
54909;SDS011;63189;51.240;9.964;2023-12-20T13:30:04;2.55;;;1.45;;
54909;SDS011;63189;51.240;9.964;2023-12-20T13:32:31;3.35;;;1.65;;
54909;SDS011;63189;51.240;9.964;2023-12-20T13:34:56;3.40;;;1.50;;
54909;SDS011;63189;51.240;9.964;2023-12-20T13:37:21;2.95;;;1.88;;
54909;SDS011;63189;51.240;9.964;2023-12-20T13:39:47;3.75;;;1.80;;
54909;SDS011;63189;51.240;9.964;2023-12-20T13:42:13;3.78;;;1.70;;
54909;SDS011;63189;51.240;9.964;2023-12-20T13:44:39;4.43;;;1.35;;
54909;SDS011;63189;51.240;9.964;2023-12-20T13:47:04;4.60;;;1.70;;
54909;SDS011;63189;51.240;9.964;2023-12-20T13:49:29;4.03;;;1.80;;
54909;SDS011;63189;51.240;9.964;2023-12-20T13:51:55;2.05;;;1.30;;
54909;SDS011;63189;51.240;9.964;2023-12-20T13:54:20;1.92;;;1.35;;
54909;SDS011;63189;51.240;9.964;2023-12-20T13:56:47;3.53;;;1.40;;
54909;SDS011;63189;51.240;9.964;2023-12-20T13:59:12;3.58;;;1.20;;
54909;SDS011;63189;51.240;9.964;2023-12-20T14:01:38;2.67;;;1.00;;
54909;SDS011;63189;51.240;9.964;2023-12-20T14:04:04;3.45;;;1.10;;
54909;SDS011;63189;51.240;9.964;2023-12-20T14:06:29;3.05;;;1.00;;
54909;SDS011;63189;51.240;9.964;2023-12-20T14:08:56;2.28;;;1.45;;
54909;SDS011;63189;51.240;9.964;2023-12-20T14:11:25;1.35;;;1.00;;
54909;SDS011;63189;51.240;9.964;2023-12-20T14:13:51;2.45;;;1.10;;
54909;SDS011;63189;51.240;9.964;2023-12-20T14:16:17;2.78;;;1.30;;
54909;SDS011;63189;51.240;9.964;2023-12-20T14:18:42;3.50;;;1.20;;
54909;SDS011;63189;51.240;9.964;2023-12-20T14:21:07;1.80;;;1.00;;
54909;SDS011;63189;51.240;9.964;2023-12-20T14:23:33;2.83;;;1.25;;
54909;SDS011;63189;51.240;9.964;2023-12-20T14:25:58;2.78;;;1.00;;
54909;SDS011;63189;51.240;9.964;2023-12-20T14:28:24;3.75;;;1.17;;
54909;SDS011;63189;51.240;9.964;2023-12-20T14:30:50;2.50;;;1.50;;
54909;SDS011;63189;51.240;9.964;2023-12-20T14:33:16;3.80;;;1.00;;
54909;SDS011;63189;51.240;9.964;2023-12-20T14:35:41;2.03;;;1.00;;
54909;SDS011;63189;51.240;9.964;2023-12-20T14:38:07;2.50;;;1.17;;
54909;SDS011;63189;51.240;9.964;2023-12-20T14:40:33;2.22;;;1.05;;
54909;SDS011;63189;51.240;9.964;2023-12-20T14:42:58;4.38;;;0.90;;
54909;SDS011;63189;51.240;9.964;2023-12-20T14:45:29;2.75;;;1.70;;
54909;SDS011;63189;51.240;9.964;2023-12-20T14:47:54;4.20;;;1.65;;
54909;SDS011;63189;51.240;9.964;2023-12-20T14:50:20;3.10;;;1.70;;